Hlavní strana
METAR-TAF:

METAR-TAF

Letiště :

Columbia, Jižní Karolína, Spojené státy americké

zeměpisná šířka: 33-56-31N, zeměpisná délka: 081-07-05W, výška: 71 m

Aktuální stav počasí

Zpráva byla vytvořena před 10 minutami, v 09:56 UTC
Západojihozápadní vítr 3 kt
Teplota 14°C
Vlhkost vzduchu 94%
Tlak 1018 hPa
Viditelnost: 16.1 km
Jasno

METAR: KCAE 060956Z 25003KT 10SM CLR 14/13 A3007 RMK AO2 SLP182 T01440128

Čas: 06:06 (10:06 UTC)

Předpověď počasí

Zpráva byla vytvořena před 1 hodinou a 38 minutami, v 08:28 UTC
Předpověď platná od 06 v 08 UTC do 07 v 06 UTC
vítr z různých směrů 5 kt
Viditelnost: 10 km
Polojasno ve výšce 10000 ft
Od 06 v 1500 UTC
Západní vítr 5 kt
Viditelnost: 10 km
Polojasno ve výšce 4000 ft
Polojasno ve výšce 25000 ft
Od 07 v 0000 UTC
vítr z různých směrů 4 kt
Viditelnost: 10 km
Polojasno ve výšce 25000 ft

TAF: KCAE 060828Z 0608/0706 VRB05KT P6SM SCT100 FM061500 26005KT P6SM SCT040 SCT250 FM070000 VRB04KT P6SM SCT250

Stav a předpovědi počasí z více než 4 000 letišť (zprávy METAR a TAF).

Červené a žluté tečky na mapě představují dostupné meteorologické stanice.

Když kurzor umístíte na tečku, zobrazí se název stanice.

Pak kliknutím zobrazíte stav a předpověď počasí.

Chcete-li změnit mapu, kliknutím na zelené tlačítko se znaménkem +mapu přiblížíte, kliknutím na zelené tlačítko se znaménkem – mapu oddálíte a kliknutím na zelené šipky přejdete na sousední mapy.


METAR-TAF: